Flight Track Log - Related Links

Times and Time Zones

All times are in EDT time to prevent confusion due to time zone crossing. See the N1926A flight status page for this flight to view local times or setup timezone preferences in your user account.


Time Position Orientation Groundspeed Altitude Reporting Facility
EDT Latitude Longitude Course Direction KTS MPH feet Rate Location/Type
Fri 12:11:55 PM 30.4783 -85.7656 274° West 194 223 26,000  Level Jacksonville Center
Fri 12:12:55 PM 30.5169 -85.8103 315° West 194 223 7,900 -8,350 Descending Jacksonville Center
Fri 12:13:55 PM 30.5686 -85.8408 333° Northwest 199 229 9,300 1,450 Climbing Jacksonville Center
Fri 12:14:00 PM 30.7367 -86.0744 330° Northwest  Level FlightAware Approximate
Fri 12:14:55 PM 30.6222 -85.8642 339° North 205 236 10,800  Level Jacksonville Center
Fri 12:15:00 PM 30.7944 -86.1130 330° Northwest  Level FlightAware Approximate
Fri 12:15:55 PM 30.6856 -85.8322 23° Northeast 205 236 11,700  Level Jacksonville Center
Fri 12:16:00 PM 30.8013 -86.1866 274° West  Level FlightAware Approximate
Fri 12:16:55 PM 30.7447 -85.8050 22° Northeast 210 242 13,700  Level Jacksonville Center
Fri 12:17:55 PM 30.7994 -85.7850 17° North 216 249 15,300 1,500 Climbing Jacksonville Center
Fri 12:18:55 PM 30.8511 -85.8133 335° Northwest 188 216 16,700 1,350 Climbing Jacksonville Center
Fri 12:19:55 PM 30.8917 -85.8556 318° Northwest 188 216 18,000 1,350 Climbing Jacksonville Center
Fri 12:20:55 PM 30.9261 -85.9053 309° West 188 216 19,400 1,200 Climbing Jacksonville Center
Fri 12:21:55 PM 30.9606 -85.9547 309° West 195 224 20,400 1,000 Climbing Jacksonville Center
Fri 12:22:55 PM 30.9925 -86.0067 306° West 201 231 21,400 1,050 Climbing Jacksonville Center
Fri 12:23:55 PM 31.0269 -86.0561 309° West 201 231 22,500 1,050 Climbing Jacksonville Center
Fri 12:24:55 PM 31.0672 -86.1158 308° West 201 231 23,500 1,000 Climbing Jacksonville Center
Fri 12:25:55 PM 31.1033 -86.1631 312° West 201 231 24,500 950 Climbing Jacksonville Center
Fri 12:26:55 PM 31.1397 -86.2106 312° West 196 226 25,400 756 Climbing Jacksonville Center
Fri 12:27:54 PM 31.1761 -86.2628 309° West 196 226 26,000 300 Climbing Jacksonville Center
Fri 12:28:55 PM 31.2144 -86.3128 312° West 196 226 26,000  Level Jacksonville Center
Fri 12:29:55 PM 31.2544 -86.3725 308° West 216 249 26,000  Level Jacksonville Center
Fri 12:30:55 PM 31.2986 -86.4350 310° West 230 265 26,000  Level Jacksonville Center
Fri 12:33:04 PM 31.3933 -86.5639 311° West 244 281 26,000  Level Atlanta Center
Fri 12:34:04 PM 31.4400 -86.6261 311° West 244 281 26,000  Level Atlanta Center
Fri 12:35:04 PM 31.4825 -86.6906 308° West 244 281 26,000  Level Atlanta Center
Fri 12:36:04 PM 31.5269 -86.7503 311° West 244 281 26,000  Level Atlanta Center
Fri 12:37:04 PM 31.5653 -86.8050 309° West 244 281 26,000  Level Atlanta Center
Fri 12:38:04 PM 31.6100 -86.8675 310° West 250 288 26,000  Level Atlanta Center
Fri 12:39:04 PM 31.6544 -86.9297 310° West 250 288 26,000  Level Atlanta Center
Fri 12:40:04 PM 31.6989 -86.9947 309° West 250 288 26,000  Level Atlanta Center
Fri 12:41:04 PM 31.7431 -87.0572 310° West 250 288 26,000  Level Atlanta Center
Fri 12:42:04 PM 31.7875 -87.1197 310° West 250 288 26,000  Level Atlanta Center
Fri 12:43:04 PM 31.8297 -87.1800 310° West 250 288 26,000  Level Atlanta Center
Fri 12:44:04 PM 31.8742 -87.2400 311° West 250 288 26,000  Level Atlanta Center
Fri 12:45:04 PM 31.9206 -87.3053 310° West 255 293 26,000  Level Atlanta Center
Fri 12:46:04 PM 31.9628 -87.3656 310° West 255 293 26,000  Level Atlanta Center
Fri 12:47:04 PM 32.0047 -87.4283 308° West 250 288 26,000  Level Atlanta Center
Fri 12:48:04 PM 32.0489 -87.4939 308° West 250 288 26,000  Level Atlanta Center
Fri 12:49:04 PM 32.0972 -87.5569 312° West 255 293 26,000  Level Atlanta Center
Fri 12:50:04 PM 32.1372 -87.6197 307° West 255 293 26,000  Level Atlanta Center
Fri 12:51:04 PM 32.1831 -87.6881 308° West 255 293 26,000  Level Atlanta Center
Fri 12:52:04 PM 32.2272 -87.7486 311° West 255 293 26,000  Level Atlanta Center
Fri 12:54:18 PM 32.3239 -87.8892 309° West 246 283 26,000  Level Memphis Center
Fri 12:55:18 PM 32.3689 -87.9519 310° West 246 283 26,000  Level Memphis Center
Fri 12:56:18 PM 32.4117 -88.0122 310° West 246 283 26,000  Level Memphis Center
Fri 12:57:18 PM 32.4525 -88.0728 309° West 246 283 26,000  Level Memphis Center
Fri 12:58:18 PM 32.5019 -88.1428 310° West 246 283 26,000  Level Memphis Center
Fri 12:59:18 PM 32.5447 -88.2058 309° West 246 283 26,000  Level Memphis Center
Fri 01:00:18 PM 32.5833 -88.2642 308° West 246 283 26,000  Level Memphis Center
Fri 01:01:18 PM 32.6239 -88.3247 309° West 246 283 26,000  Level Memphis Center
Fri 01:02:18 PM 32.6689 -88.3881 310° West 246 283 26,000  Level Memphis Center
Fri 01:03:18 PM 32.7114 -88.4486 310° West 246 283 26,000  Level Memphis Center
Fri 01:04:18 PM 32.7542 -88.5119 309° West 246 283 26,000  Level Memphis Center
Fri 01:05:18 PM 32.7989 -88.5778 309° West 246 283 26,000  Level Memphis Center
Fri 01:06:18 PM 32.8394 -88.6414 307° West 246 283 26,000  Level Memphis Center
Fri 01:07:18 PM 32.8822 -88.7047 309° West 246 283 26,000  Level Memphis Center
Fri 01:08:18 PM 32.9247 -88.7683 309° West 246 283 26,000  Level Memphis Center
Fri 01:09:18 PM 32.9672 -88.8344 307° West 246 283 26,000  Level Memphis Center
Fri 01:10:18 PM 33.0100 -88.9006 308° West 246 283 26,000  Level Memphis Center
Fri 01:11:18 PM 33.0544 -88.9644 310° West 246 283 26,000  Level Memphis Center
Fri 01:12:18 PM 33.0969 -89.0306 308° West 246 283 26,000  Level Memphis Center
Fri 01:13:18 PM 33.1436 -89.0969 310° West 251 289 26,000  Level Memphis Center
Fri 01:14:18 PM 33.1944 -89.1731 309° West 256 295 26,000  Level Memphis Center
Fri 01:15:18 PM 33.2389 -89.2369 310° West 256 295 26,000  Level Memphis Center
Fri 01:16:18 PM 33.2853 -89.3036 310° West 256 295 26,000  Level Memphis Center
Fri 01:17:18 PM 33.3297 -89.3728 308° West 256 295 26,000  Level Memphis Center
Fri 01:18:18 PM 33.3742 -89.4419 308° West 261 300 26,000  Level Memphis Center
Fri 01:19:18 PM 33.4183 -89.5086 308° West 261 300 26,000  Level Memphis Center
Fri 01:20:18 PM 33.4669 -89.5753 311° West 261 300 26,000  Level Memphis Center
Fri 01:21:18 PM 33.5131 -89.6422 310° West 261 300 26,000  Level Memphis Center
Fri 01:22:18 PM 33.5553 -89.7142 305° West 267 307 26,000  Level Memphis Center
Fri 01:23:18 PM 33.5994 -89.7836 307° West 267 307 26,000  Level Memphis Center
Fri 01:24:18 PM 33.6436 -89.8506 308° West 267 307 26,000  Level Memphis Center
Fri 01:25:18 PM 33.6856 -89.9128 309° West 267 307 26,000  Level Memphis Center
Fri 01:26:18 PM 33.7297 -89.9800 308° West 267 307 26,000  Level Memphis Center
Fri 01:27:18 PM 33.7758 -90.0497 309° West 262 302 26,000  Level Memphis Center
Fri 01:28:18 PM 33.8261 -90.1222 310° West 262 302 26,000  Level Memphis Center
Fri 01:29:18 PM 33.8700 -90.1919 307° West 267 307 26,000  Level Memphis Center
Fri 01:30:18 PM 33.9117 -90.2644 305° West 267 307 26,000  Level Memphis Center
Fri 01:31:18 PM 33.9494 -90.3247 307° West 267 307 26,000  Level Memphis Center
Fri 01:32:18 PM 33.9953 -90.3947 308° West 267 307 26,000  Level Memphis Center
Fri 01:33:18 PM 34.0453 -90.4600 313° West 267 307 26,000  Level Memphis Center
Fri 01:34:18 PM 34.0892 -90.5278 308° West 255 293 26,000  Level Memphis Center
Fri 01:35:18 PM 34.1350 -90.5981 308° West 255 293 26,000  Level Memphis Center
Fri 01:36:18 PM 34.1828 -90.6736 307° West 255 293 26,000  Level Memphis Center
Fri 01:37:18 PM 34.2264 -90.7414 308° West 255 293 26,000  Level Memphis Center
Fri 01:38:18 PM 34.2700 -90.8094 308° West 261 300 26,000  Level Memphis Center
Fri 01:39:18 PM 34.3156 -90.8803 308° West 261 300 26,000  Level Memphis Center
Fri 01:40:18 PM 34.3592 -90.9483 308° West 261 300 26,000  Level Memphis Center
Fri 01:41:18 PM 34.4006 -91.0192 305° West 268 308 26,000  Level Memphis Center
Fri 01:42:18 PM 34.4461 -91.0875 309° West 268 308 26,000  Level Memphis Center
Fri 01:43:18 PM 34.4917 -91.1611 307° West 268 308 26,000  Level Memphis Center
Fri 01:44:18 PM 34.5308 -91.2219 308° West 268 308 26,000  Level Memphis Center
Fri 01:45:18 PM 34.5761 -91.2928 308° West 268 308 26,000  Level Memphis Center
Fri 01:46:18 PM 34.6194 -91.3617 307° West 268 308 26,000  Level Memphis Center
Fri 01:47:18 PM 34.6628 -91.4303 308° West 268 308 26,000  Level Memphis Center
Fri 01:48:18 PM 34.7058 -91.5017 306° West 263 303 26,000  Level Memphis Center
Fri 01:49:18 PM 34.7492 -91.5728 307° West 268 308 26,000  Level Memphis Center
Fri 01:50:18 PM 34.7983 -91.6519 307° West 268 308 26,000  Level Memphis Center
Fri 01:51:18 PM 34.8414 -91.7183 308° West 268 308 26,000  Level Memphis Center
Fri 01:52:18 PM 34.8783 -91.7822 305° West 263 303 26,000  Level Memphis Center
Fri 01:53:18 PM 34.9233 -91.8514 308° West 263 303 26,000  Level Memphis Center
Fri 01:54:18 PM 34.9664 -91.9181 308° West 268 308 26,000  Level Memphis Center
Fri 01:55:18 PM 35.0092 -91.9900 306° West 268 308 26,000  Level Memphis Center
Fri 01:56:18 PM 35.0522 -92.0567 308° West 268 308 26,000  Level Memphis Center
Fri 01:57:18 PM 35.0950 -92.1286 306° West 268 308 26,000 -100 Level Memphis Center
Fri 01:58:18 PM 35.1397 -92.2006 307° West 268 308 25,800 -250 Descending Memphis Center
Fri 01:59:18 PM 35.1825 -92.2725 306° West 268 308 25,500 -250 Descending Memphis Center
Fri 02:00:18 PM 35.2253 -92.3447 306° West 268 308 25,300 -400 Descending Memphis Center
Fri 02:01:18 PM 35.2719 -92.4222 306° West 268 308 24,700 -500 Descending Memphis Center
Fri 02:02:18 PM 35.3186 -92.4972 307° West 273 314 24,300 -500 Descending Memphis Center
Fri 02:03:18 PM 35.3633 -92.5694 307° West 267 307 23,700 -650 Descending Memphis Center
Fri 02:04:18 PM 35.4078 -92.6419 307° West 267 307 23,000 -800 Descending Memphis Center
Fri 02:05:18 PM 35.4544 -92.7250 305° West 273 314 22,100 -900 Descending Memphis Center
Fri 02:06:18 PM 35.4986 -92.8003 306° West 275 316 21,200 -800 Descending Memphis Center
Fri 02:07:18 PM 35.5431 -92.8756 306° West 271 312 20,500 -650 Descending Memphis Center
Fri 02:08:18 PM 35.5875 -92.9431 309° West 279 321 19,900 -600 Descending Memphis Center
Fri 02:09:18 PM 35.6358 -93.0264 306° West 271 312 19,300 -600 Descending Memphis Center
Fri 02:10:18 PM 35.6744 -93.0814 311° West 275 316 18,700 -600 Descending Memphis Center
Fri 02:11:18 PM 35.7206 -93.1569 307° West 275 316 18,100 -500 Descending Memphis Center
Fri 02:12:18 PM 35.7628 -93.2353 304° West 275 316 17,700 -500 Descending Memphis Center
Fri 02:13:18 PM 35.8067 -93.3108 306° West 275 316 17,100 -600 Descending Memphis Center
Fri 02:14:18 PM 35.8508 -93.3842 307° West 270 311 16,500 -750 Descending Memphis Center
Fri 02:15:18 PM 35.8969 -93.4628 306° West 270 311 15,600 -1,150 Descending Memphis Center
Fri 02:16:18 PM 35.9450 -93.5389 308° West 275 316 14,200 -1,250 Descending Memphis Center
Fri 02:17:18 PM 35.9931 -93.6203 306° West 282 325 13,100 -1,600 Descending Memphis Center
Fri 02:18:18 PM 36.0389 -93.7017 305° West 287 330 11,000 -1,950 Descending Memphis Center
Fri 02:19:18 PM 36.0867 -93.7806 307° West 292 336 9,200 -1,850 Descending Memphis Center
Fri 02:20:18 PM 36.1344 -93.8622 306° West 292 336 7,300 -1,600 Descending Memphis Center
Fri 02:21:18 PM 36.1781 -93.9414 304° West 292 336 6,000 -1,150 Descending Memphis Center
Fri 02:22:18 PM 36.2178 -94.0075 307° West 276 318 5,000 -750 Descending Memphis Center
Fri 02:23:18 PM 36.2514 -94.0681 305° West 245 282 4,500 -850 Descending Memphis Center
Fri 02:24:18 PM 36.2872 -94.1289 306° West 227 261 3,300 -750 Descending Memphis Center
Fri 02:25:18 PM 36.3247 -94.1975 304° West 220 253 3,000 -300 Descending Memphis Center
Fri 02:30:00 PM 36.3452 -94.2193 122° Southeast  Level Estimated
Fri 02:37:00 PM 36.3452 -94.2193 122° Southeast  Level Estimated

Login

Don't have an account? Register now (free) for customized features, flight alerts, and more!